TAF PABE
PABE 072335Z 0800/0824 24011KT P6SM -SN OVC040 FM080400 16010KT 4SM -SN OVC025 FM080900 13014KT 1SM -SN BR OVC015 FM081200 21020G30KT 3SM -SN BR OVC010 FM081700 21023G34KT 3SM -SN BR OVC010=
METAR PABE
WC PABE
WS PABE
WV PABE